EGXE

Leeming Airport

Leeming, United Kingdom
METAR EGXE 181350Z 14009KT CAVOK 02/M02 Q1012 BLU NOSIG
Observed Flight Rules
Jan-18 @ 13:50 UTC (38 minutes ago) Visual Flight Rules
Wind Visibility Clouds
140° at 9 knots 10,000+ meters
  • Clear skies
Temperatures Readings
Current 2°C / 36°F
Dewpoint -2°C / 28°F
Humidity 75%
Altimeter 29.88" Hg
Pressure 1011.92 hPa
Elevation 40
METAR EGXE 181350Z 14009KT CAVOK 02/M02 Q1012 BLU NOSIG
Observed Flight Rules
Jan-18 @ 13:50 UTC
(38 minutes ago)
VFR
Wind Visibility
140° at 9 knots 10,000+ meters
Clouds
  • Clear skies
Temperature Dewpoint
2°C / 36°F -2°C / 28°F
Humidity Altimeter Pressure
75% 29.88" Hg 1011.92 hPa